Time;durP1;ratioP1;P1;durP2;ratioP2;P2;SDS_P1;SDS_P2;PMS_P1;PMS_P2;Temp;Humidity;BMP_temperature;BMP_pressure;BME280_temperature;BME280_humidity;BME280_pressure;Samples;Min_cycle;Max_cycle;Signal;HPM_P1;HPM_P2
2022/09/25 00:02:57;;;;;;;4.03;0.75;;;;;;;19.58;52.57;101475.66;16136648;19;130756;-51
2022/09/25 00:08:19;;;;;;;4.97;0.82;;;;;;;19.57;52.21;101479.50;16136681;19;129323;-48
2022/09/25 00:13:43;;;;;;;3.63;0.80;;;;;;;19.57;51.84;101484.22;16135602;19;130824;-52
2022/09/25 00:24:45;;;;;;;5.93;0.60;;;;;;;19.56;52.14;101483.41;16135711;19;130024;-49
2022/09/25 00:30:09;;;;;;;4.03;0.77;;;;;;;19.55;51.82;101476.16;16135295;19;129235;-49
2022/09/25 00:35:32;;;;;;;1.75;0.82;;;;;;;19.54;52.13;101482.78;16135462;19;130269;-48
2022/09/25 00:40:54;;;;;;;3.97;1.00;;;;;;;19.52;52.08;101483.00;16133391;19;129697;-49
2022/09/25 00:46:26;;;;;;;2.33;0.70;;;;;;;19.53;52.32;101490.25;16128869;19;129450;-50
2022/09/25 00:51:54;;;;;;;3.08;0.70;;;;;;;19.52;52.30;101494.09;16135333;19;129611;-50
2022/09/25 00:57:25;;;;;;;2.60;0.70;;;;;;;19.52;52.54;101501.59;16134718;19;131676;-49
2022/09/25 01:02:52;;;;;;;1.83;0.60;;;;;;;19.51;52.46;101505.47;16133340;19;129516;-50
2022/09/25 01:08:19;;;;;;;3.08;0.60;;;;;;;19.51;52.56;101502.69;16130920;19;130730;-48
2022/09/25 01:13:41;;;;;;;2.03;0.70;;;;;;;19.50;53.05;101501.00;16132538;19;130729;-48
2022/09/25 01:19:27;;;;;;;5.03;0.70;;;;;;;19.49;52.11;101504.84;16130529;19;130177;-47
2022/09/25 01:24:52;;;;;;;2.78;0.65;;;;;;;19.47;51.77;101507.88;16133797;19;130230;-51
2022/09/25 01:30:17;;;;;;;2.72;0.60;;;;;;;19.47;52.08;101509.78;16132970;19;129313;-50
2022/09/25 01:35:51;;;;;;;2.55;0.52;;;;;;;19.47;51.76;101518.09;16130412;19;129778;-55
2022/09/25 01:41:29;;;;;;;2.08;0.77;;;;;;;19.47;51.81;101512.56;16128669;19;129135;-63
2022/09/25 01:46:52;;;;;;;2.42;0.63;;;;;;;19.46;51.60;101510.88;16129390;19;130418;-63
2022/09/25 01:52:19;;;;;;;1.40;0.65;;;;;;;19.44;52.29;101511.13;16128422;19;129929;-52
2022/09/25 01:57:52;;;;;;;2.60;0.80;;;;;;;19.45;52.30;101520.28;16128826;19;129717;-53
2022/09/25 02:03:24;;;;;;;3.15;0.80;;;;;;;19.44;51.62;101522.22;16128582;19;129949;-51
2022/09/25 02:08:52;;;;;;;1.20;0.52;;;;;;;19.44;51.84;101524.16;16126639;19;129718;-48
2022/09/25 02:14:20;;;;;;;2.10;0.57;;;;;;;19.42;51.90;101527.16;16128229;19;129000;-51
2022/09/25 02:25:37;;;;;;;1.80;0.70;;;;;;;19.43;52.03;101516.91;16120543;19;129617;-50
2022/09/25 02:31:00;;;;;;;1.70;0.70;;;;;;;19.42;51.83;101520.78;16117979;19;130847;-49
2022/09/25 02:36:22;;;;;;;1.35;0.55;;;;;;;19.42;52.29;101518.81;16113353;19;130956;-51
2022/09/25 02:41:47;;;;;;;1.15;0.60;;;;;;;19.41;51.90;101510.75;16114166;19;129520;-49
2022/09/25 02:47:33;;;;;;;1.27;0.43;;;;;;;19.42;52.33;101509.66;16118789;19;129949;-52
2022/09/25 02:53:07;;;;;;;1.10;0.43;;;;;;;19.42;52.01;101512.44;16115870;19;129478;-51
2022/09/25 02:58:35;;;;;;;1.88;0.57;;;;;;;19.40;52.42;101503.50;16117720;19;130131;-49
2022/09/25 03:03:59;;;;;;;1.80;0.57;;;;;;;19.38;52.42;101507.34;16123858;19;129655;-49
2022/09/25 03:09:22;;;;;;;1.73;0.63;;;;;;;19.37;52.06;101514.00;16120549;19;130687;-48
2022/09/25 03:14:44;;;;;;;1.38;0.50;;;;;;;19.38;52.97;101507.34;16124091;19;129705;-51
2022/09/25 03:20:08;;;;;;;1.85;0.55;;;;;;;19.36;52.20;101503.16;16123845;19;129500;-51
2022/09/25 03:25:30;;;;;;;0.90;0.47;;;;;;;19.36;52.54;101506.75;16124569;19;129510;-53
2022/09/25 03:30:59;;;;;;;1.38;0.60;;;;;;;19.37;51.93;101514.00;16122745;19;129335;-52
2022/09/25 03:36:23;;;;;;;1.98;0.68;;;;;;;19.36;52.50;101517.00;16120947;19;129846;-48
2022/09/25 03:41:46;;;;;;;1.25;0.52;;;;;;;19.34;52.66;101514.47;16119918;19;131131;-48
2022/09/25 03:47:08;;;;;;;2.63;0.55;;;;;;;19.32;52.02;101511.06;16118795;19;129647;-48
2022/09/25 03:52:30;;;;;;;1.88;0.80;;;;;;;19.33;52.46;101518.31;16121852;19;129606;-48
2022/09/25 03:57:51;;;;;;;1.63;0.50;;;;;;;19.32;52.60;101516.63;16122277;19;129554;-49
2022/09/25 04:03:17;;;;;;;3.57;0.77;;;;;;;19.32;52.58;101507.47;16119099;19;129729;-48
2022/09/25 04:08:38;;;;;;;2.58;0.70;;;;;;;19.31;52.45;101509.41;16120941;19;129917;-51
2022/09/25 04:14:00;;;;;;;2.15;0.40;;;;;;;19.29;52.26;101508.78;16119410;19;129029;-51
2022/09/25 04:19:22;;;;;;;0.40;0.38;;;;;;;19.29;52.92;101510.69;16124549;19;130158;-50
2022/09/25 04:24:50;;;;;;;1.42;0.60;;;;;;;19.28;52.26;101509.88;16138357;19;129917;-51
2022/09/25 04:30:12;;;;;;;2.60;0.60;;;;;;;19.28;52.47;101520.97;16135480;19;130798;-51
2022/09/25 04:35:33;;;;;;;0.95;0.47;;;;;;;19.27;52.42;101513.72;16139447;19;129520;-50
2022/09/25 04:40:56;;;;;;;1.00;0.57;;;;;;;19.26;52.38;101509.25;16134735;19;129767;-52
2022/09/25 04:46:18;;;;;;;1.95;0.65;;;;;;;19.27;52.57;101507.31;16133060;19;129580;-52
2022/09/25 04:51:43;;;;;;;1.33;0.50;;;;;;;19.25;52.41;101507.56;16136914;19;129979;-50
2022/09/25 04:57:04;;;;;;;1.83;0.45;;;;;;;19.24;52.54;101514.19;16133797;19;129215;-50
2022/09/25 05:02:27;;;;;;;2.00;0.60;;;;;;;19.23;52.23;101512.50;16136317;19;129346;-49
2022/09/25 05:07:53;;;;;;;1.52;0.60;;;;;;;19.23;52.40;101512.50;16134829;19;129891;-52
2022/09/25 05:13:14;;;;;;;0.70;0.45;;;;;;;19.22;52.15;101505.25;16136639;19;129534;-51
2022/09/25 05:18:36;;;;;;;1.85;0.60;;;;;;;19.22;52.23;101505.25;16130416;19;130157;-50
2022/09/25 05:23:58;;;;;;;0.88;0.47;;;;;;;19.19;52.55;101501.00;16131699;19;129435;-48
2022/09/25 05:29:20;;;;;;;2.03;0.80;;;;;;;19.19;52.01;101501.00;16129895;19;129239;-50
2022/09/25 05:34:41;;;;;;;2.85;0.60;;;;;;;19.19;52.46;101491.84;16130168;19;129568;-49
2022/09/25 05:40:03;;;;;;;1.23;0.47;;;;;;;19.19;52.07;101489.06;16129375;19;129480;-49
2022/09/25 05:45:25;;;;;;;0.73;0.40;;;;;;;19.19;52.03;101494.63;16128949;19;129426;-50
2022/09/25 05:50:54;;;;;;;1.60;0.63;;;;;;;19.17;52.98;101500.38;16131814;19;129892;-52
2022/09/25 05:56:16;;;;;;;2.13;0.50;;;;;;;19.20;53.26;101504.63;16129776;19;133994;-51
2022/09/25 06:01:37;;;;;;;0.60;0.22;;;;;;;19.24;53.09;101494.78;16130152;19;130322;-53
2022/09/25 06:07:01;;;;;;;0.63;0.15;;;;;;;19.29;53.45;101494.06;16130141;19;129587;-49
2022/09/25 06:12:23;;;;;;;0.35;0.25;;;;;;;19.32;53.58;101499.97;16125977;19;129532;-53
2022/09/25 06:17:45;;;;;;;2.50;0.50;;;;;;;19.34;53.11;101497.81;16126264;19;130203;-51
2022/09/25 06:23:07;;;;;;;1.25;0.30;;;;;;;19.33;53.50;101507.22;16126722;19;129254;-49
2022/09/25 06:28:29;;;;;;;0.70;0.30;;;;;;;19.33;53.10;101507.22;16130006;19;129233;-49
2022/09/25 06:33:51;;;;;;;0.77;0.30;;;;;;;19.34;52.94;101510.84;16128617;19;129486;-50
2022/09/25 06:39:13;;;;;;;1.58;0.30;;;;;;;19.34;53.13;101514.47;16127311;19;129621;-50
2022/09/25 06:44:35;;;;;;;0.43;0.32;;;;;;;19.33;52.98;101518.31;16128672;19;129776;-49
2022/09/25 06:49:57;;;;;;;1.10;0.50;;;;;;;19.32;53.11;101516.63;16125461;19;129695;-51
2022/09/25 06:55:18;;;;;;;0.68;0.40;;;;;;;19.32;52.70;101513.00;16124951;19;129575;-49
2022/09/25 07:00:44;;;;;;;0.52;0.45;;;;;;;19.31;52.66;101514.97;16125281;19;129439;-53
2022/09/25 07:06:07;;;;;;;0.30;0.20;;;;;;;19.31;52.44;101511.31;16128675;19;129827;-54
2022/09/25 07:11:30;;;;;;;2.00;0.57;;;;;;;19.30;52.49;101523.50;16124405;19;130714;-48
2022/09/25 07:16:51;;;;;;;1.17;0.47;;;;;;;19.30;52.81;101520.72;16124230;19;129089;-53
2022/09/25 07:22:13;;;;;;;2.17;0.57;;;;;;;19.29;52.35;101527.34;16124302;19;129489;-52
2022/09/25 07:27:35;;;;;;;1.80;0.50;;;;;;;19.36;52.97;101540.03;16127269;19;129208;-51
2022/09/25 07:32:57;;;;;;;3.78;0.40;;;;;;;19.59;52.50;101543.97;16123064;19;130284;-50
2022/09/25 07:38:21;;;;;;;1.52;0.50;;;;;;;20.56;51.44;101547.38;16122511;19;129716;-50
2022/09/25 07:43:43;;;;;;;3.35;0.50;;;;;;;23.58;45.32;101540.69;16120426;19;130520;-51
2022/09/25 07:49:05;;;;;;;2.20;0.45;;;;;;;25.90;40.63;101529.72;16121606;19;129481;-50
2022/09/25 07:54:27;;;;;;;2.38;0.38;;;;;;;27.52;37.82;101545.66;16125615;19;129422;-52
2022/09/25 07:59:49;;;;;;;2.72;1.02;;;;;;;28.48;35.43;101533.78;16136909;19;130674;-49
2022/09/25 08:05:11;;;;;;;14.93;0.80;;;;;;;27.92;36.17;101530.47;16136928;19;134869;-49
2022/09/25 08:10:32;;;;;;;4.55;0.60;;;;;;;26.03;38.78;101528.31;16137850;19;129215;-49
2022/09/25 08:15:55;;;;;;;1.70;0.57;;;;;;;24.67;41.03;101531.13;16137006;19;129203;-50
2022/09/25 08:21:19;;;;;;;1.40;0.63;;;;;;;23.68;43.12;101521.28;16134228;19;129364;-49
2022/09/25 08:26:40;;;;;;;1.95;0.70;;;;;;;22.98;43.96;101535.06;16136859;19;129977;-48
2022/09/25 08:32:02;;;;;;;4.22;0.70;;;;;;;22.48;45.07;101536.94;16132288;19;129478;-59
2022/09/25 08:37:24;;;;;;;3.25;1.00;;;;;;;22.10;45.77;101531.06;16131246;19;130580;-52
2022/09/25 08:42:51;;;;;;;2.85;0.90;;;;;;;21.81;46.62;101543.16;16132270;19;131287;-60
2022/09/25 08:54:03;;;;;;;2.92;0.82;;;;;;;21.36;47.84;101533.72;16133867;19;130808;-48
2022/09/25 08:59:32;;;;;;;3.47;0.70;;;;;;;21.20;47.78;101535.38;16132020;19;129684;-47
2022/09/25 09:04:56;;;;;;;4.70;0.70;;;;;;;21.06;48.54;101525.63;16126992;19;129489;-49
2022/09/25 09:10:32;;;;;;;5.47;1.02;;;;;;;20.95;48.26;101515.41;16130626;19;130173;-48
2022/09/25 09:16:02;;;;;;;9.18;1.38;;;;;;;20.87;49.26;101523.06;16134889;19;130069;-49
2022/09/25 09:21:44;;;;;;;11.77;1.08;;;;;;;20.83;49.09;101523.81;16131682;19;129274;-50
2022/09/25 09:27:32;;;;;;;4.22;0.80;;;;;;;20.77;49.46;101522.84;16133830;19;129944;-51
2022/09/25 09:33:26;;;;;;;4.60;0.90;;;;;;;20.76;49.59;101515.59;16131659;19;129180;-59
2022/09/25 09:39:18;;;;;;;6.07;0.77;;;;;;;20.72;49.81;101520.78;16130801;19;129604;-53
2022/09/25 09:44:48;;;;;;;2.92;0.70;;;;;;;20.69;50.23;101517.63;16130418;19;130191;-47
2022/09/25 09:50:10;;;;;;;2.72;0.70;;;;;;;20.66;49.93;101507.03;16129727;19;129555;-50
2022/09/25 09:55:44;;;;;;;4.93;0.70;;;;;;;20.65;50.27;101508.94;16132164;19;129708;-48
2022/09/25 10:01:06;;;;;;;8.30;0.85;;;;;;;20.62;50.39;101501.09;16128191;19;129309;-51
2022/09/25 10:07:12;;;;;;;1.95;0.70;;;;;;;20.60;49.83;101506.06;16128015;19;129409;-51
2022/09/25 10:12:36;;;;;;;4.13;0.70;;;;;;;20.53;50.59;101492.31;16130061;19;131036;-49
2022/09/25 10:18:00;;;;;;;2.95;0.73;;;;;;;20.49;50.13;101505.00;16126985;19;129477;-51
2022/09/25 10:23:45;;;;;;;3.40;0.85;;;;;;;20.44;50.36;101505.75;16128804;19;129564;-50
2022/09/25 10:29:39;;;;;;;14.23;2.17;;;;;;;20.40;50.41;101498.13;16124902;19;131072;-48
2022/09/25 10:35:02;;;;;;;14.45;2.15;;;;;;;20.38;50.16;101500.31;16124029;19;129497;-51
2022/09/25 10:40:26;;;;;;;15.70;2.30;;;;;;;20.37;50.40;101502.22;16121404;19;130018;-48
2022/09/25 10:46:11;;;;;;;16.50;2.40;;;;;;;20.41;50.61;101502.59;16124516;19;129638;-48
2022/09/25 10:51:33;;;;;;;12.93;2.30;;;;;;;20.40;49.88;101503.69;16125374;19;129753;-51
2022/09/25 10:56:55;;;;;;;4.43;1.55;;;;;;;20.31;49.45;101503.22;16125114;19;130384;-50
2022/09/25 11:02:38;;;;;;;7.72;1.65;;;;;;;20.28;48.81;101495.38;16114834;19;130333;-51
2022/09/25 11:08:04;;;;;;;7.05;1.50;;;;;;;20.29;48.40;101497.06;16094333;19;135562;-44
2022/09/25 11:13:29;;;;;;;8.23;1.60;;;;;;;20.31;48.03;101489.31;16120209;19;132467;-46
2022/09/25 11:19:06;;;;;;;5.35;1.30;;;;;;;20.33;48.15;101483.50;16120901;19;135579;-49
2022/09/25 11:24:43;;;;;;;7.25;1.17;;;;;;;20.34;48.39;101488.84;16118966;19;129642;-48
2022/09/25 11:30:18;;;;;;;6.18;1.52;;;;;;;20.37;47.84;101477.22;16119602;19;130073;-47
2022/09/25 11:35:55;;;;;;;5.25;1.25;;;;;;;20.36;47.98;101483.03;16117980;19;130801;-51
2022/09/25 11:41:40;;;;;;;5.40;1.30;;;;;;;20.35;48.09;101489.69;16116971;19;129433;-49
2022/09/25 11:47:33;;;;;;;3.70;1.00;;;;;;;20.32;48.42;101479.03;16117416;19;130447;-52
2022/09/25 11:53:04;;;;;;;6.60;1.40;;;;;;;20.26;47.92;101470.63;16119985;19;131370;-48
2022/09/25 11:58:45;;;;;;;7.72;1.23;;;;;;;20.24;47.60;101467.22;16118974;19;129559;-50
2022/09/25 12:04:06;;;;;;;5.57;0.98;;;;;;;20.22;47.78;101468.56;16118950;19;129483;-48
2022/09/25 12:09:51;;;;;;;4.20;0.80;;;;;;;20.23;47.50;101448.88;16118829;19;129583;-47
2022/09/25 12:15:35;;;;;;;7.43;1.10;;;;;;;20.24;47.28;101442.22;16118294;19;129067;-49
2022/09/25 12:21:05;;;;;;;5.28;0.60;;;;;;;20.22;46.89;101429.69;16117397;19;129876;-47
2022/09/25 12:26:51;;;;;;;3.92;0.65;;;;;;;20.19;46.58;101428.22;16118222;19;129482;-48
2022/09/25 12:32:21;;;;;;;6.17;1.03;;;;;;;20.12;45.92;101430.28;16118219;19;129580;-49
2022/09/25 12:38:10;;;;;;;2.83;0.60;;;;;;;20.09;45.60;101423.31;16115569;19;129886;-49
2022/09/25 12:43:40;;;;;;;5.80;0.80;;;;;;;20.04;45.40;101417.63;16135743;19;129339;-49
2022/09/25 12:49:25;;;;;;;1.50;0.47;;;;;;;20.03;44.54;101415.94;16132063;19;129397;-47
2022/09/25 12:54:57;;;;;;;18.50;1.63;;;;;;;20.03;44.70;101409.53;16131624;19;130448;-49
2022/09/25 13:00:22;;;;;;;10.07;0.88;;;;;;;19.98;44.59;101408.31;16129661;19;129105;-52
2022/09/25 13:06:04;;;;;;;14.30;1.20;;;;;;;19.99;44.45;101398.91;16126319;19;129589;-46
2022/09/25 13:11:37;;;;;;;10.95;0.90;;;;;;;19.97;43.92;101394.66;16129209;19;129980;-47
2022/09/25 13:17:00;;;;;;;8.63;0.90;;;;;;;20.01;44.38;101392.28;16128655;19;129804;-49
2022/09/25 13:22:24;;;;;;;8.73;0.90;;;;;;;20.03;44.14;101392.88;16127213;19;129544;-51
2022/09/25 13:27:46;;;;;;;5.72;0.60;;;;;;;20.05;43.99;101385.16;16129198;19;130095;-49
2022/09/25 13:33:18;;;;;;;2.63;0.60;;;;;;;20.05;44.16;101374.88;16128536;19;129406;-50
2022/09/25 13:44:39;;;;;;;6.28;0.77;;;;;;;20.04;44.02;101375.13;16125558;19;130839;-47
2022/09/25 13:50:16;;;;;;;5.65;0.65;;;;;;;20.04;44.42;101372.34;16122076;19;129533;-46
2022/09/25 13:55:46;;;;;;;3.70;0.70;;;;;;;20.05;44.09;101362.94;16125285;19;130219;-47
2022/09/25 14:01:32;;;;;;;3.65;0.60;;;;;;;20.06;43.89;101353.50;16127532;19;129546;-47
2022/09/25 14:07:03;;;;;;;3.35;0.43;;;;;;;20.06;44.40;101345.19;16127955;19;129394;-47
2022/09/25 14:12:41;;;;;;;3.20;0.47;;;;;;;20.06;44.19;101343.22;16126364;19;129178;-49
2022/09/25 14:18:07;;;;;;;3.60;0.68;;;;;;;20.07;44.48;101338.50;16128513;19;130001;-49
2022/09/25 14:23:32;;;;;;;1.73;0.68;;;;;;;20.07;44.19;101331.03;16128634;19;129322;-49
2022/09/25 14:28:56;;;;;;;2.75;0.60;;;;;;;20.08;44.19;101338.28;16115296;19;130082;-49
2022/09/25 14:34:29;;;;;;;3.58;0.40;;;;;;;20.10;44.63;101335.25;16123222;19;129901;-51
2022/09/25 14:40:21;;;;;;;5.20;0.52;;;;;;;20.12;44.07;101333.91;16124648;19;130683;-50
2022/09/25 14:46:00;;;;;;;3.55;0.40;;;;;;;20.16;44.73;101333.41;16124112;19;129528;-44
2022/09/25 14:51:26;;;;;;;6.10;0.68;;;;;;;20.15;44.76;101329.81;16122689;19;129241;-56
2022/09/25 14:56:53;;;;;;;2.38;0.35;;;;;;;20.17;44.56;101316.53;16123644;19;130871;-47
2022/09/25 15:02:25;;;;;;;3.80;0.50;;;;;;;20.18;44.94;101309.88;16116692;19;129919;-50
2022/09/25 15:07:47;;;;;;;1.83;0.40;;;;;;;20.16;45.02;101303.72;16120566;19;129792;-48
2022/09/25 15:13:19;;;;;;;5.85;0.52;;;;;;;20.17;45.19;101310.09;16119728;19;130256;-47
2022/09/25 15:18:55;;;;;;;2.58;0.50;;;;;;;20.17;44.88;101305.41;16122612;19;129398;-48
2022/09/25 15:24:23;;;;;;;2.23;0.30;;;;;;;20.15;45.00;101307.59;16121020;19;129790;-53
2022/09/25 15:29:47;;;;;;;1.25;0.20;;;;;;;20.15;44.97;101296.47;16119338;19;130578;-49
2022/09/25 15:35:16;;;;;;;1.60;0.20;;;;;;;20.14;44.96;101300.34;16119773;19;129403;-46
2022/09/25 15:40:39;;;;;;;2.40;0.38;;;;;;;20.10;44.45;101300.00;16119143;19;129495;-54
2022/09/25 15:46:06;;;;;;;3.28;0.40;;;;;;;20.08;44.38;101295.75;16120060;19;129329;-49
2022/09/25 15:51:32;;;;;;;5.47;0.68;;;;;;;20.06;44.66;101298.78;16121115;19;130185;-50
2022/09/25 15:56:56;;;;;;;6.10;0.60;;;;;;;20.02;44.43;101296.75;16123525;19;130008;-49
2022/09/25 16:08:22;;;;;;;5.88;0.75;;;;;;;19.96;44.10;101287.44;16119097;19;129821;-49
2022/09/25 16:13:48;;;;;;;4.68;0.55;;;;;;;19.91;44.38;101279.88;16119471;19;129670;-51
2022/09/25 16:19:39;;;;;;;4.63;0.57;;;;;;;19.89;43.84;101292.28;16136470;19;130188;-53
2022/09/25 16:25:01;;;;;;;5.32;0.68;;;;;;;19.86;44.44;101293.63;16133249;19;130470;-49
2022/09/25 16:30:23;;;;;;;3.55;0.55;;;;;;;19.85;43.99;101294.72;16131912;19;130058;-51
2022/09/25 16:35:47;;;;;;;3.33;0.57;;;;;;;19.83;44.24;101306.09;16131833;19;130500;-51
2022/09/25 16:41:29;;;;;;;3.30;0.55;;;;;;;19.82;44.56;101304.41;16132837;19;129372;-50
2022/09/25 16:46:53;;;;;;;3.10;0.32;;;;;;;19.80;44.47;101306.56;16134165;19;134158;-51
2022/09/25 16:52:19;;;;;;;2.35;0.60;;;;;;;19.80;44.53;101300.19;16133026;19;128998;-51
2022/09/25 16:57:41;;;;;;;3.35;0.85;;;;;;;19.79;44.71;101292.94;16131917;19;129456;-50
2022/09/25 17:03:10;;;;;;;12.15;6.63;;;;;;;19.78;44.54;101296.81;16130339;19;129480;-52
2022/09/25 17:08:32;;;;;;;13.75;7.70;;;;;;;19.78;44.68;101299.56;16134485;19;129766;-48
2022/09/25 17:13:55;;;;;;;6.93;4.43;;;;;;;19.76;45.15;101299.81;16133070;19;130057;-48
2022/09/25 17:19:18;;;;;;;10.57;6.60;;;;;;;19.75;45.31;101297.28;16125271;19;129903;-50
2022/09/25 17:24:39;;;;;;;8.88;6.10;;;;;;;19.74;44.92;101290.03;16129949;19;129567;-51
2022/09/25 17:30:01;;;;;;;9.30;5.10;;;;;;;19.73;45.21;101293.91;16127781;19;130053;-48
2022/09/25 17:35:45;;;;;;;7.10;4.57;;;;;;;19.75;45.24;101286.19;16129889;19;129478;-47
2022/09/25 17:41:19;;;;;;;9.00;4.25;;;;;;;19.73;45.19;101282.81;16130193;19;129328;-48
2022/09/25 17:46:41;;;;;;;13.98;6.50;;;;;;;19.74;46.07;101290.03;16129796;19;129225;-49
2022/09/25 17:52:03;;;;;;;10.38;5.60;;;;;;;19.76;45.73;101276.75;16127128;19;129626;-52
2022/09/25 17:57:26;;;;;;;20.58;7.00;;;;;;;19.77;46.17;101267.34;16125655;19;130214;-48
2022/09/25 18:02:48;;;;;;;22.88;10.32;;;;;;;19.79;46.25;101281.84;16128359;19;130774;-53
2022/09/25 18:08:11;;;;;;;18.70;8.88;;;;;;;19.81;46.68;101274.13;16126536;19;130222;-50
2022/09/25 18:13:32;;;;;;;15.43;8.13;;;;;;;19.81;46.78;101263.84;16128866;19;129355;-49
2022/09/25 18:24:42;;;;;;;17.48;6.45;;;;;;;19.83;46.83;101266.34;16127377;19;129101;-51
2022/09/25 18:30:04;;;;;;;10.68;5.80;;;;;;;19.83;47.10;101275.53;16125234;19;130321;-48
2022/09/25 18:35:26;;;;;;;14.57;5.40;;;;;;;19.84;47.01;101271.69;16126859;19;129624;-48
2022/09/25 18:40:48;;;;;;;13.18;5.30;;;;;;;19.86;47.28;101281.69;16125713;19;129422;-48
2022/09/25 18:46:09;;;;;;;13.55;7.15;;;;;;;19.86;46.96;101271.41;16123216;19;130290;-48
2022/09/25 18:51:32;;;;;;;30.75;21.38;;;;;;;19.85;46.98;101264.19;16124026;19;129776;-48
2022/09/25 18:56:57;;;;;;;33.50;17.80;;;;;;;19.85;47.36;101269.72;16127317;19;129823;-48
2022/09/25 19:02:23;;;;;;;22.60;13.35;;;;;;;19.86;47.14;101254.75;16122949;19;129368;-50
2022/09/25 19:07:45;;;;;;;27.02;13.88;;;;;;;19.86;47.71;101254.75;16124353;19;130075;-49
2022/09/25 19:13:07;;;;;;;23.48;13.55;;;;;;;19.87;47.64;101250.91;16119429;19;130672;-51
2022/09/25 19:18:28;;;;;;;22.50;14.93;;;;;;;19.87;47.80;101247.28;16122758;19;130331;-48
2022/09/25 19:23:50;;;;;;;24.08;16.15;;;;;;;19.88;47.86;101243.44;16123932;19;129217;-51
2022/09/25 19:29:12;;;;;;;20.10;14.57;;;;;;;19.88;48.34;101241.47;16123909;19;129636;-51
2022/09/25 19:34:34;;;;;;;26.45;16.20;;;;;;;19.88;48.25;101238.69;16125182;19;129792;-48
2022/09/25 19:45:37;;;;;;;22.88;14.73;;;;;;;19.88;48.32;101230.38;16124124;19;129384;-48
2022/09/25 19:51:04;;;;;;;28.42;16.92;;;;;;;19.90;48.43;101235.66;16129270;19;129685;-46
2022/09/25 19:56:26;;;;;;;32.90;18.70;;;;;;;19.89;48.92;101233.97;16136791;19;129461;-47
2022/09/25 20:01:48;;;;;;;26.25;17.67;;;;;;;19.90;48.85;101222.66;16136884;19;129154;-48
2022/09/25 20:07:14;;;;;;;35.13;17.58;;;;;;;19.91;48.93;101217.91;16136188;19;129517;-48
2022/09/25 20:12:35;;;;;;;34.58;18.17;;;;;;;19.90;49.09;101211.53;16136689;19;134536;-54
2022/09/25 20:17:58;;;;;;;28.50;18.42;;;;;;;19.90;49.41;101219.00;16137346;19;131179;-48
2022/09/25 20:23:19;;;;;;;32.42;21.48;;;;;;;19.90;49.20;101205.97;16125129;19;130670;-47
2022/09/25 20:28:42;;;;;;;33.58;21.88;;;;;;;19.92;49.21;101191.84;16132058;19;129747;-50
2022/09/25 20:34:04;;;;;;;35.35;21.90;;;;;;;19.93;49.37;101194.38;16136873;19;129546;-46
2022/09/25 20:39:26;;;;;;;32.70;21.17;;;;;;;19.92;49.29;101187.16;16134138;19;129529;-51
2022/09/25 20:44:48;;;;;;;32.10;20.50;;;;;;;19.93;49.42;101182.44;16135152;19;129642;-47
2022/09/25 20:50:10;;;;;;;29.65;20.33;;;;;;;19.92;49.75;101181.59;16131519;19;130374;-48
2022/09/25 20:55:36;;;;;;;39.58;26.83;;;;;;;19.93;49.30;101172.19;16132938;19;129489;-47
2022/09/25 21:01:01;;;;;;;36.97;25.00;;;;;;;19.94;49.88;101173.00;16132008;19;129745;-48
2022/09/25 21:06:25;;;;;;;34.58;24.65;;;;;;;19.91;49.49;101170.72;16130944;19;129319;-48
2022/09/25 21:11:48;;;;;;;36.75;22.52;;;;;;;19.90;49.49;101164.34;16126423;19;129678;-48
2022/09/25 21:17:10;;;;;;;32.00;22.77;;;;;;;19.88;49.19;101151.81;16126579;19;129228;-47
2022/09/25 21:22:31;;;;;;;33.83;23.40;;;;;;;19.86;49.11;101137.31;16131971;19;130401;-46
2022/09/25 21:27:54;;;;;;;32.53;21.30;;;;;;;19.84;49.35;101140.34;16133734;19;129630;-48
2022/09/25 21:33:15;;;;;;;30.05;20.77;;;;;;;19.81;49.22;101138.06;16128591;19;132907;-48
2022/09/25 21:38:38;;;;;;;27.45;18.35;;;;;;;19.79;49.41;101131.94;16123862;19;129570;-48
2022/09/25 21:44:06;;;;;;;27.30;19.20;;;;;;;19.77;49.45;101142.44;16123632;19;129812;-57
2022/09/25 21:49:28;;;;;;;29.77;17.90;;;;;;;19.74;49.53;101134.59;16126852;19;129752;-56
2022/09/25 21:54:50;;;;;;;23.52;17.40;;;;;;;19.73;48.99;101132.91;16130075;19;129874;-56
2022/09/25 22:00:12;;;;;;;21.92;16.20;;;;;;;19.73;49.21;101141.22;16128574;19;130224;-56
2022/09/25 22:05:35;;;;;;;22.02;16.05;;;;;;;19.69;49.06;101127.00;16128430;19;130233;-56
2022/09/25 22:10:57;;;;;;;20.55;15.02;;;;;;;19.68;49.25;101128.97;16128480;19;129457;-55
2022/09/25 22:16:25;;;;;;;20.98;14.88;;;;;;;19.67;48.91;101124.50;16118525;19;129876;-57
2022/09/25 22:21:48;;;;;;;20.45;14.27;;;;;;;19.65;49.33;101123.91;16118054;19;129569;-56
2022/09/25 22:27:10;;;;;;;22.65;13.80;;;;;;;19.63;49.19;101120.53;16115849;19;129917;-53
2022/09/25 22:32:32;;;;;;;17.08;12.95;;;;;;;19.62;49.20;101118.84;16119911;19;130076;-55
2022/09/25 22:37:54;;;;;;;16.80;12.52;;;;;;;19.63;49.35;101100.28;16126490;19;129733;-57
2022/09/25 22:43:15;;;;;;;13.88;11.35;;;;;;;19.60;49.12;101101.59;16125254;19;129503;-55
2022/09/25 22:48:38;;;;;;;17.70;12.00;;;;;;;19.61;49.11;101096.91;16126013;19;129239;-52
2022/09/25 22:54:00;;;;;;;16.02;11.43;;;;;;;19.59;49.30;101102.69;16126675;19;129802;-56
2022/09/25 22:59:21;;;;;;;14.60;11.30;;;;;;;19.58;49.05;101092.66;16127114;19;129140;-54
2022/09/25 23:04:44;;;;;;;16.38;11.77;;;;;;;19.59;48.86;101086.03;16122020;19;130704;-55
2022/09/25 23:10:07;;;;;;;16.08;11.10;;;;;;;19.57;49.28;101067.94;16121827;19;129343;-54
2022/09/25 23:15:29;;;;;;;15.45;10.98;;;;;;;19.56;49.11;101057.94;16122971;19;129335;-56
2022/09/25 23:20:52;;;;;;;14.18;10.05;;;;;;;19.56;49.23;101038.50;16124160;19;134321;-55
2022/09/25 23:26:14;;;;;;;15.98;11.35;;;;;;;19.55;48.86;101037.69;16121470;19;129280;-54
2022/09/25 23:31:36;;;;;;;13.18;10.50;;;;;;;19.55;48.78;101026.59;16125498;19;130677;-55
2022/09/25 23:36:57;;;;;;;14.88;10.77;;;;;;;19.54;49.31;101013.81;16123392;19;129751;-57
2022/09/25 23:42:20;;;;;;;14.27;10.65;;;;;;;19.53;49.01;100989.91;16122919;19;129690;-54
2022/09/25 23:47:42;;;;;;;13.65;10.10;;;;;;;19.53;48.81;100995.47;16122632;19;129264;-56
2022/09/25 23:53:04;;;;;;;14.55;10.02;;;;;;;19.52;49.21;100991.00;16120770;19;130273;-54
2022/09/25 23:58:27;;;;;;;17.25;10.02;;;;;;;19.52;49.00;100977.13;16120834;19;130304;-58
